sensor_id;sensor_type;location;lat;lon;timestamp;P1;durP1;ratioP1;P2;durP2;ratioP2
55728;SDS011;41633;39.720;2.910;2023-04-24T10:41:30;8.85;;;2.30;;
55728;SDS011;41633;39.720;2.910;2023-04-24T10:44:13;7.82;;;2.50;;
55728;SDS011;41633;39.720;2.910;2023-04-24T10:46:43;6.35;;;1.70;;
55728;SDS011;41633;39.720;2.910;2023-04-24T10:49:09;6.70;;;1.95;;
55728;SDS011;41633;39.720;2.910;2023-04-24T10:54:28;6.45;;;1.80;;
55728;SDS011;41633;39.720;2.910;2023-04-24T10:59:40;6.38;;;1.85;;
55728;SDS011;41633;39.720;2.910;2023-04-24T11:02:06;6.82;;;1.77;;
55728;SDS011;41633;39.720;2.910;2023-04-24T11:04:33;7.32;;;1.75;;
55728;SDS011;41633;39.720;2.910;2023-04-24T11:07:03;6.53;;;1.80;;
55728;SDS011;41633;39.720;2.910;2023-04-24T11:09:30;10.20;;;2.28;;
55728;SDS011;41633;39.720;2.910;2023-04-24T11:12:03;8.60;;;2.53;;
55728;SDS011;41633;39.720;2.910;2023-04-24T11:14:58;7.70;;;2.00;;
55728;SDS011;41633;39.720;2.910;2023-04-24T11:17:34;7.95;;;2.20;;
55728;SDS011;41633;39.720;2.910;2023-04-24T11:20:03;13.05;;;3.30;;
55728;SDS011;41633;39.720;2.910;2023-04-24T11:22:32;10.65;;;2.78;;
55728;SDS011;41633;39.720;2.910;2023-04-24T11:25:00;8.98;;;2.15;;
55728;SDS011;41633;39.720;2.910;2023-04-24T11:27:30;8.80;;;2.35;;
55728;SDS011;41633;39.720;2.910;2023-04-24T11:30:00;10.38;;;2.47;;
55728;SDS011;41633;39.720;2.910;2023-04-24T11:35:00;10.90;;;4.05;;
55728;SDS011;41633;39.720;2.910;2023-04-24T11:37:27;10.23;;;3.78;;
55728;SDS011;41633;39.720;2.910;2023-04-24T11:39:54;11.30;;;3.50;;
55728;SDS011;41633;39.720;2.910;2023-04-24T11:42:21;7.57;;;2.85;;
55728;SDS011;41633;39.720;2.910;2023-04-24T11:44:48;10.82;;;2.92;;
55728;SDS011;41633;39.720;2.910;2023-04-24T11:47:15;9.63;;;2.60;;
55728;SDS011;41633;39.720;2.910;2023-04-24T11:49:41;9.45;;;2.78;;
55728;SDS011;41633;39.720;2.910;2023-04-24T11:52:07;10.73;;;2.60;;
55728;SDS011;41633;39.720;2.910;2023-04-24T11:54:33;9.63;;;2.78;;
55728;SDS011;41633;39.720;2.910;2023-04-24T11:56:59;10.90;;;2.83;;
55728;SDS011;41633;39.720;2.910;2023-04-24T11:59:29;11.10;;;3.10;;
55728;SDS011;41633;39.720;2.910;2023-04-24T12:01:55;9.40;;;2.65;;
55728;SDS011;41633;39.720;2.910;2023-04-24T12:04:21;8.77;;;2.40;;
55728;SDS011;41633;39.720;2.910;2023-04-24T12:07:03;9.65;;;2.30;;
55728;SDS011;41633;39.720;2.910;2023-04-24T12:09:43;7.82;;;2.03;;
55728;SDS011;41633;39.720;2.910;2023-04-24T12:12:10;10.23;;;2.20;;
55728;SDS011;41633;39.720;2.910;2023-04-24T12:22:04;8.55;;;2.50;;
55728;SDS011;41633;39.720;2.910;2023-04-24T12:24:31;10.70;;;2.33;;
55728;SDS011;41633;39.720;2.910;2023-04-24T12:26:57;11.23;;;2.42;;
55728;SDS011;41633;39.720;2.910;2023-04-24T12:29:24;11.98;;;3.13;;
55728;SDS011;41633;39.720;2.910;2023-04-24T12:31:51;9.90;;;2.97;;
55728;SDS011;41633;39.720;2.910;2023-04-24T12:34:21;9.73;;;2.33;;
55728;SDS011;41633;39.720;2.910;2023-04-24T12:36:47;7.68;;;2.42;;
55728;SDS011;41633;39.720;2.910;2023-04-24T12:39:14;10.00;;;2.85;;
55728;SDS011;41633;39.720;2.910;2023-04-24T12:44:37;8.75;;;2.28;;
55728;SDS011;41633;39.720;2.910;2023-04-24T12:47:03;17.50;;;9.15;;
55728;SDS011;41633;39.720;2.910;2023-04-24T12:49:30;15.57;;;6.53;;
55728;SDS011;41633;39.720;2.910;2023-04-24T12:51:56;12.93;;;6.28;;
55728;SDS011;41633;39.720;2.910;2023-04-24T12:54:22;14.13;;;6.65;;
55728;SDS011;41633;39.720;2.910;2023-04-24T12:56:48;9.20;;;2.72;;
55728;SDS011;41633;39.720;2.910;2023-04-24T12:59:14;11.52;;;3.00;;
55728;SDS011;41633;39.720;2.910;2023-04-24T13:01:41;8.95;;;2.50;;
55728;SDS011;41633;39.720;2.910;2023-04-24T13:04:07;9.55;;;2.55;;
55728;SDS011;41633;39.720;2.910;2023-04-24T13:06:33;9.15;;;2.50;;
55728;SDS011;41633;39.720;2.910;2023-04-24T13:08:59;8.60;;;2.00;;
55728;SDS011;41633;39.720;2.910;2023-04-24T13:11:25;8.68;;;2.08;;
55728;SDS011;41633;39.720;2.910;2023-04-24T13:13:51;7.90;;;2.00;;
55728;SDS011;41633;39.720;2.910;2023-04-24T13:16:18;8.20;;;2.13;;
55728;SDS011;41633;39.720;2.910;2023-04-24T13:18:44;7.07;;;1.75;;
55728;SDS011;41633;39.720;2.910;2023-04-24T13:21:10;10.02;;;2.20;;
55728;SDS011;41633;39.720;2.910;2023-04-24T13:23:36;12.18;;;2.50;;
55728;SDS011;41633;39.720;2.910;2023-04-24T13:26:02;7.53;;;2.00;;
55728;SDS011;41633;39.720;2.910;2023-04-24T13:28:28;8.80;;;1.98;;
55728;SDS011;41633;39.720;2.910;2023-04-24T13:30:55;9.23;;;2.05;;
55728;SDS011;41633;39.720;2.910;2023-04-24T13:33:21;10.13;;;2.50;;
55728;SDS011;41633;39.720;2.910;2023-04-24T13:35:47;9.05;;;2.40;;
55728;SDS011;41633;39.720;2.910;2023-04-24T13:38:13;8.25;;;2.30;;
55728;SDS011;41633;39.720;2.910;2023-04-24T13:40:39;8.77;;;2.28;;
55728;SDS011;41633;39.720;2.910;2023-04-24T13:43:06;12.35;;;2.28;;
55728;SDS011;41633;39.720;2.910;2023-04-24T13:45:32;9.75;;;2.40;;
55728;SDS011;41633;39.720;2.910;2023-04-24T13:47:58;10.18;;;2.10;;
55728;SDS011;41633;39.720;2.910;2023-04-24T13:50:24;8.55;;;2.40;;
55728;SDS011;41633;39.720;2.910;2023-04-24T13:52:50;12.07;;;2.65;;
55728;SDS011;41633;39.720;2.910;2023-04-24T13:55:17;10.30;;;2.40;;
55728;SDS011;41633;39.720;2.910;2023-04-24T13:57:43;9.13;;;2.30;;
55728;SDS011;41633;39.720;2.910;2023-04-24T14:00:09;10.25;;;2.50;;
55728;SDS011;41633;39.720;2.910;2023-04-24T14:02:35;9.02;;;2.40;;
55728;SDS011;41633;39.720;2.910;2023-04-24T14:05:02;13.15;;;2.03;;
55728;SDS011;41633;39.720;2.910;2023-04-24T14:07:28;9.60;;;2.42;;
55728;SDS011;41633;39.720;2.910;2023-04-24T14:09:56;8.80;;;2.35;;
55728;SDS011;41633;39.720;2.910;2023-04-24T14:12:22;11.00;;;2.47;;
55728;SDS011;41633;39.720;2.910;2023-04-24T14:14:49;9.93;;;2.25;;
55728;SDS011;41633;39.720;2.910;2023-04-24T14:17:15;10.45;;;2.65;;
55728;SDS011;41633;39.720;2.910;2023-04-24T14:19:41;11.82;;;2.47;;
55728;SDS011;41633;39.720;2.910;2023-04-24T14:22:07;8.73;;;2.28;;
55728;SDS011;41633;39.720;2.910;2023-04-24T14:24:33;10.57;;;2.65;;
55728;SDS011;41633;39.720;2.910;2023-04-24T14:26:59;10.60;;;2.50;;
55728;SDS011;41633;39.720;2.910;2023-04-24T14:29:26;9.18;;;2.45;;
55728;SDS011;41633;39.720;2.910;2023-04-24T14:31:52;8.50;;;2.22;;
55728;SDS011;41633;39.720;2.910;2023-04-24T14:34:18;10.05;;;2.45;;
55728;SDS011;41633;39.720;2.910;2023-04-24T14:36:44;10.50;;;2.35;;
55728;SDS011;41633;39.720;2.910;2023-04-24T14:39:11;9.35;;;2.45;;
55728;SDS011;41633;39.720;2.910;2023-04-24T14:41:37;11.48;;;2.65;;
55728;SDS011;41633;39.720;2.910;2023-04-24T14:44:04;8.30;;;2.20;;
55728;SDS011;41633;39.720;2.910;2023-04-24T14:46:31;9.45;;;2.83;;
55728;SDS011;41633;39.720;2.910;2023-04-24T14:48:57;9.45;;;2.42;;
55728;SDS011;41633;39.720;2.910;2023-04-24T14:51:23;11.77;;;2.72;;
55728;SDS011;41633;39.720;2.910;2023-04-24T14:53:50;9.55;;;2.35;;
55728;SDS011;41633;39.720;2.910;2023-04-24T14:56:17;9.55;;;2.13;;
55728;SDS011;41633;39.720;2.910;2023-04-24T14:58:43;11.35;;;2.72;;
55728;SDS011;41633;39.720;2.910;2023-04-24T15:01:10;9.85;;;2.50;;
55728;SDS011;41633;39.720;2.910;2023-04-24T15:03:36;9.45;;;2.30;;
55728;SDS011;41633;39.720;2.910;2023-04-24T15:06:02;11.10;;;2.85;;
55728;SDS011;41633;39.720;2.910;2023-04-24T15:08:28;8.48;;;2.90;;
55728;SDS011;41633;39.720;2.910;2023-04-24T15:10:55;11.23;;;3.20;;
55728;SDS011;41633;39.720;2.910;2023-04-24T15:13:21;9.40;;;2.60;;
55728;SDS011;41633;39.720;2.910;2023-04-24T15:15:47;10.02;;;2.33;;
55728;SDS011;41633;39.720;2.910;2023-04-24T15:18:13;8.75;;;2.40;;
55728;SDS011;41633;39.720;2.910;2023-04-24T15:20:39;9.60;;;2.90;;
55728;SDS011;41633;39.720;2.910;2023-04-24T15:23:07;9.50;;;2.28;;
55728;SDS011;41633;39.720;2.910;2023-04-24T15:25:33;11.05;;;2.60;;
55728;SDS011;41633;39.720;2.910;2023-04-24T15:28:00;8.75;;;2.47;;
55728;SDS011;41633;39.720;2.910;2023-04-24T15:30:26;9.05;;;2.58;;
55728;SDS011;41633;39.720;2.910;2023-04-24T15:32:52;8.93;;;2.30;;
55728;SDS011;41633;39.720;2.910;2023-04-24T15:35:18;10.85;;;2.40;;
55728;SDS011;41633;39.720;2.910;2023-04-24T15:37:45;12.38;;;3.63;;
55728;SDS011;41633;39.720;2.910;2023-04-24T15:40:11;10.43;;;3.30;;
55728;SDS011;41633;39.720;2.910;2023-04-24T15:42:38;8.75;;;2.55;;
55728;SDS011;41633;39.720;2.910;2023-04-24T15:45:05;8.88;;;2.65;;
55728;SDS011;41633;39.720;2.910;2023-04-24T15:47:31;8.73;;;2.33;;
55728;SDS011;41633;39.720;2.910;2023-04-24T15:49:58;8.60;;;2.50;;
55728;SDS011;41633;39.720;2.910;2023-04-24T15:52:24;10.07;;;2.03;;
55728;SDS011;41633;39.720;2.910;2023-04-24T15:54:50;8.85;;;2.20;;
55728;SDS011;41633;39.720;2.910;2023-04-24T15:57:16;9.68;;;2.20;;
55728;SDS011;41633;39.720;2.910;2023-04-24T15:59:43;7.97;;;2.10;;
55728;SDS011;41633;39.720;2.910;2023-04-24T16:02:09;7.45;;;2.10;;
55728;SDS011;41633;39.720;2.910;2023-04-24T16:04:42;10.57;;;1.95;;
55728;SDS011;41633;39.720;2.910;2023-04-24T16:07:09;9.52;;;2.58;;
55728;SDS011;41633;39.720;2.910;2023-04-24T16:09:35;17.35;;;2.40;;
55728;SDS011;41633;39.720;2.910;2023-04-24T16:12:01;9.95;;;2.40;;
55728;SDS011;41633;39.720;2.910;2023-04-24T16:14:27;9.18;;;2.90;;
55728;SDS011;41633;39.720;2.910;2023-04-24T16:16:53;10.35;;;2.97;;
55728;SDS011;41633;39.720;2.910;2023-04-24T16:19:20;10.93;;;2.22;;
55728;SDS011;41633;39.720;2.910;2023-04-24T16:21:46;9.23;;;2.47;;
55728;SDS011;41633;39.720;2.910;2023-04-24T16:24:12;8.57;;;2.58;;
55728;SDS011;41633;39.720;2.910;2023-04-24T16:26:38;9.32;;;2.45;;
55728;SDS011;41633;39.720;2.910;2023-04-24T16:29:04;9.75;;;2.13;;
55728;SDS011;41633;39.720;2.910;2023-04-24T16:31:30;9.10;;;2.28;;
55728;SDS011;41633;39.720;2.910;2023-04-24T16:33:57;10.65;;;2.55;;
55728;SDS011;41633;39.720;2.910;2023-04-24T16:36:23;9.15;;;2.50;;
55728;SDS011;41633;39.720;2.910;2023-04-24T16:38:50;10.85;;;2.92;;
55728;SDS011;41633;39.720;2.910;2023-04-24T16:41:16;9.25;;;2.70;;
55728;SDS011;41633;39.720;2.910;2023-04-24T16:43:42;10.70;;;2.20;;
55728;SDS011;41633;39.720;2.910;2023-04-24T16:46:08;9.20;;;2.72;;
55728;SDS011;41633;39.720;2.910;2023-04-24T16:48:35;11.05;;;2.45;;
55728;SDS011;41633;39.720;2.910;2023-04-24T16:51:01;8.40;;;2.28;;
55728;SDS011;41633;39.720;2.910;2023-04-24T16:53:27;8.48;;;2.13;;
55728;SDS011;41633;39.720;2.910;2023-04-24T16:55:54;9.30;;;2.35;;
55728;SDS011;41633;39.720;2.910;2023-04-24T16:58:20;9.63;;;2.33;;
55728;SDS011;41633;39.720;2.910;2023-04-24T17:00:46;10.68;;;2.42;;
55728;SDS011;41633;39.720;2.910;2023-04-24T17:03:12;10.05;;;2.80;;
55728;SDS011;41633;39.720;2.910;2023-04-24T17:05:39;10.95;;;2.58;;
55728;SDS011;41633;39.720;2.910;2023-04-24T17:08:05;7.60;;;2.53;;
55728;SDS011;41633;39.720;2.910;2023-04-24T17:10:31;10.07;;;2.53;;
55728;SDS011;41633;39.720;2.910;2023-04-24T17:12:57;8.70;;;2.30;;
55728;SDS011;41633;39.720;2.910;2023-04-24T17:15:23;8.13;;;2.20;;
55728;SDS011;41633;39.720;2.910;2023-04-24T17:17:50;10.15;;;3.10;;
55728;SDS011;41633;39.720;2.910;2023-04-24T17:20:16;7.88;;;2.33;;
55728;SDS011;41633;39.720;2.910;2023-04-24T17:22:42;8.55;;;2.25;;
55728;SDS011;41633;39.720;2.910;2023-04-24T17:25:09;8.75;;;2.33;;
55728;SDS011;41633;39.720;2.910;2023-04-24T17:27:35;8.23;;;2.50;;
55728;SDS011;41633;39.720;2.910;2023-04-24T17:30:01;9.93;;;2.28;;
55728;SDS011;41633;39.720;2.910;2023-04-24T17:32:27;11.18;;;2.78;;
55728;SDS011;41633;39.720;2.910;2023-04-24T17:34:53;9.43;;;2.30;;
55728;SDS011;41633;39.720;2.910;2023-04-24T17:37:20;9.68;;;2.47;;
55728;SDS011;41633;39.720;2.910;2023-04-24T17:39:47;8.80;;;2.20;;
55728;SDS011;41633;39.720;2.910;2023-04-24T17:42:13;6.88;;;1.83;;
55728;SDS011;41633;39.720;2.910;2023-04-24T17:44:39;9.95;;;2.60;;
55728;SDS011;41633;39.720;2.910;2023-04-24T17:47:06;7.95;;;2.38;;
55728;SDS011;41633;39.720;2.910;2023-04-24T17:49:32;9.18;;;2.38;;
55728;SDS011;41633;39.720;2.910;2023-04-24T17:51:58;9.02;;;2.28;;
55728;SDS011;41633;39.720;2.910;2023-04-24T17:54:24;10.05;;;3.05;;
55728;SDS011;41633;39.720;2.910;2023-04-24T17:56:50;8.45;;;2.40;;
55728;SDS011;41633;39.720;2.910;2023-04-24T17:59:17;10.57;;;2.97;;
55728;SDS011;41633;39.720;2.910;2023-04-24T18:01:44;10.05;;;2.80;;
55728;SDS011;41633;39.720;2.910;2023-04-24T18:04:10;12.18;;;5.45;;
55728;SDS011;41633;39.720;2.910;2023-04-24T18:06:36;10.15;;;3.55;;
55728;SDS011;41633;39.720;2.910;2023-04-24T18:09:03;11.10;;;2.97;;
55728;SDS011;41633;39.720;2.910;2023-04-24T18:11:30;9.32;;;2.88;;
55728;SDS011;41633;39.720;2.910;2023-04-24T18:13:56;10.48;;;3.20;;
55728;SDS011;41633;39.720;2.910;2023-04-24T18:16:22;9.95;;;3.22;;
55728;SDS011;41633;39.720;2.910;2023-04-24T18:18:48;11.93;;;3.03;;
55728;SDS011;41633;39.720;2.910;2023-04-24T18:21:14;9.57;;;3.38;;
55728;SDS011;41633;39.720;2.910;2023-04-24T18:23:40;13.63;;;3.53;;
55728;SDS011;41633;39.720;2.910;2023-04-24T18:26:07;11.20;;;3.63;;
55728;SDS011;41633;39.720;2.910;2023-04-24T18:28:33;11.75;;;3.78;;
55728;SDS011;41633;39.720;2.910;2023-04-24T18:30:59;15.52;;;3.45;;
55728;SDS011;41633;39.720;2.910;2023-04-24T18:33:26;10.00;;;3.00;;
55728;SDS011;41633;39.720;2.910;2023-04-24T18:35:52;13.10;;;3.42;;
55728;SDS011;41633;39.720;2.910;2023-04-24T18:38:19;10.18;;;3.42;;
55728;SDS011;41633;39.720;2.910;2023-04-24T18:40:46;10.73;;;3.58;;
55728;SDS011;41633;39.720;2.910;2023-04-24T18:43:12;11.27;;;3.83;;
55728;SDS011;41633;39.720;2.910;2023-04-24T18:45:38;11.57;;;3.63;;
55728;SDS011;41633;39.720;2.910;2023-04-24T18:48:04;10.52;;;2.90;;
55728;SDS011;41633;39.720;2.910;2023-04-24T18:50:30;13.95;;;5.13;;
55728;SDS011;41633;39.720;2.910;2023-04-24T18:52:57;13.20;;;4.72;;
55728;SDS011;41633;39.720;2.910;2023-04-24T18:55:23;15.98;;;4.50;;
55728;SDS011;41633;39.720;2.910;2023-04-24T18:57:49;13.65;;;4.55;;
55728;SDS011;41633;39.720;2.910;2023-04-24T19:00:15;11.98;;;3.72;;
55728;SDS011;41633;39.720;2.910;2023-04-24T19:02:42;14.30;;;4.18;;
55728;SDS011;41633;39.720;2.910;2023-04-24T19:05:09;13.05;;;4.40;;
55728;SDS011;41633;39.720;2.910;2023-04-24T19:07:36;11.38;;;4.55;;
55728;SDS011;41633;39.720;2.910;2023-04-24T19:10:02;15.55;;;5.43;;
55728;SDS011;41633;39.720;2.910;2023-04-24T19:12:28;10.98;;;4.18;;
55728;SDS011;41633;39.720;2.910;2023-04-24T19:14:55;12.13;;;4.82;;
55728;SDS011;41633;39.720;2.910;2023-04-24T19:17:22;11.82;;;3.85;;
55728;SDS011;41633;39.720;2.910;2023-04-24T19:19:49;10.50;;;4.10;;
55728;SDS011;41633;39.720;2.910;2023-04-24T19:22:16;9.20;;;3.35;;
55728;SDS011;41633;39.720;2.910;2023-04-24T19:24:42;12.27;;;3.95;;
55728;SDS011;41633;39.720;2.910;2023-04-24T19:27:09;10.98;;;3.70;;
55728;SDS011;41633;39.720;2.910;2023-04-24T19:29:35;10.95;;;3.60;;
55728;SDS011;41633;39.720;2.910;2023-04-24T19:32:01;12.35;;;3.80;;
55728;SDS011;41633;39.720;2.910;2023-04-24T19:34:27;11.00;;;3.20;;
55728;SDS011;41633;39.720;2.910;2023-04-24T19:36:54;12.02;;;3.85;;
55728;SDS011;41633;39.720;2.910;2023-04-24T19:39:20;13.05;;;4.30;;
55728;SDS011;41633;39.720;2.910;2023-04-24T19:41:47;12.27;;;4.60;;
55728;SDS011;41633;39.720;2.910;2023-04-24T19:44:13;17.55;;;6.10;;
55728;SDS011;41633;39.720;2.910;2023-04-24T19:46:41;14.55;;;5.60;;
55728;SDS011;41633;39.720;2.910;2023-04-24T19:49:07;16.52;;;6.32;;
55728;SDS011;41633;39.720;2.910;2023-04-24T19:51:33;15.68;;;7.40;;
55728;SDS011;41633;39.720;2.910;2023-04-24T19:54:00;14.00;;;5.45;;
55728;SDS011;41633;39.720;2.910;2023-04-24T19:56:27;13.13;;;4.95;;
55728;SDS011;41633;39.720;2.910;2023-04-24T19:58:54;13.93;;;5.07;;
55728;SDS011;41633;39.720;2.910;2023-04-24T20:01:20;11.27;;;4.47;;
55728;SDS011;41633;39.720;2.910;2023-04-24T20:03:46;10.95;;;3.78;;
55728;SDS011;41633;39.720;2.910;2023-04-24T20:06:12;10.88;;;3.90;;
55728;SDS011;41633;39.720;2.910;2023-04-24T20:08:38;16.23;;;4.93;;
55728;SDS011;41633;39.720;2.910;2023-04-24T20:11:06;15.55;;;4.80;;
55728;SDS011;41633;39.720;2.910;2023-04-24T20:13:32;13.68;;;5.20;;
55728;SDS011;41633;39.720;2.910;2023-04-24T20:15:58;14.35;;;5.50;;
55728;SDS011;41633;39.720;2.910;2023-04-24T20:18:25;15.38;;;5.85;;
55728;SDS011;41633;39.720;2.910;2023-04-24T20:20:54;15.02;;;5.88;;
55728;SDS011;41633;39.720;2.910;2023-04-24T20:23:23;13.23;;;5.18;;
55728;SDS011;41633;39.720;2.910;2023-04-24T20:25:50;15.38;;;5.43;;
55728;SDS011;41633;39.720;2.910;2023-04-24T20:28:23;13.88;;;5.35;;
55728;SDS011;41633;39.720;2.910;2023-04-24T20:30:49;16.23;;;5.00;;
55728;SDS011;41633;39.720;2.910;2023-04-24T20:33:16;14.98;;;5.40;;
55728;SDS011;41633;39.720;2.910;2023-04-24T20:35:42;15.85;;;5.47;;
55728;SDS011;41633;39.720;2.910;2023-04-24T20:38:08;16.63;;;5.38;;
55728;SDS011;41633;39.720;2.910;2023-04-24T20:40:35;12.82;;;5.68;;
55728;SDS011;41633;39.720;2.910;2023-04-24T20:43:02;15.02;;;5.68;;
55728;SDS011;41633;39.720;2.910;2023-04-24T20:45:29;14.55;;;5.75;;
55728;SDS011;41633;39.720;2.910;2023-04-24T20:47:55;14.90;;;6.40;;
55728;SDS011;41633;39.720;2.910;2023-04-24T20:50:22;15.52;;;6.10;;
55728;SDS011;41633;39.720;2.910;2023-04-24T20:52:49;17.58;;;7.03;;
55728;SDS011;41633;39.720;2.910;2023-04-24T20:55:15;15.85;;;6.57;;
55728;SDS011;41633;39.720;2.910;2023-04-24T20:57:42;14.82;;;6.50;;
55728;SDS011;41633;39.720;2.910;2023-04-24T21:00:08;17.05;;;6.47;;
55728;SDS011;41633;39.720;2.910;2023-04-24T21:02:35;16.55;;;6.65;;
55728;SDS011;41633;39.720;2.910;2023-04-24T21:05:01;16.45;;;5.95;;
55728;SDS011;41633;39.720;2.910;2023-04-24T21:07:28;18.08;;;6.63;;
55728;SDS011;41633;39.720;2.910;2023-04-24T21:09:55;15.80;;;6.20;;
55728;SDS011;41633;39.720;2.910;2023-04-24T21:12:21;14.70;;;6.70;;
55728;SDS011;41633;39.720;2.910;2023-04-24T21:14:47;15.30;;;5.80;;
55728;SDS011;41633;39.720;2.910;2023-04-24T21:17:13;13.73;;;5.32;;
55728;SDS011;41633;39.720;2.910;2023-04-24T21:19:40;14.70;;;5.65;;
55728;SDS011;41633;39.720;2.910;2023-04-24T21:22:06;16.45;;;6.13;;
55728;SDS011;41633;39.720;2.910;2023-04-24T21:24:32;14.07;;;5.97;;
55728;SDS011;41633;39.720;2.910;2023-04-24T21:26:58;18.02;;;6.20;;
55728;SDS011;41633;39.720;2.910;2023-04-24T21:29:25;16.08;;;5.75;;
55728;SDS011;41633;39.720;2.910;2023-04-24T21:31:51;16.98;;;6.65;;
55728;SDS011;41633;39.720;2.910;2023-04-24T21:34:17;16.42;;;6.80;;
55728;SDS011;41633;39.720;2.910;2023-04-24T21:39:11;14.65;;;6.25;;
55728;SDS011;41633;39.720;2.910;2023-04-24T21:41:38;14.57;;;6.13;;
55728;SDS011;41633;39.720;2.910;2023-04-24T21:44:04;15.70;;;6.63;;
55728;SDS011;41633;39.720;2.910;2023-04-24T21:46:30;14.90;;;6.88;;
55728;SDS011;41633;39.720;2.910;2023-04-24T21:48:56;15.30;;;5.55;;
55728;SDS011;41633;39.720;2.910;2023-04-24T21:53:48;15.05;;;6.70;;
55728;SDS011;41633;39.720;2.910;2023-04-24T21:56:14;15.75;;;5.30;;
55728;SDS011;41633;39.720;2.910;2023-04-24T22:01:07;15.63;;;6.10;;
55728;SDS011;41633;39.720;2.910;2023-04-24T22:03:33;13.10;;;5.55;;
55728;SDS011;41633;39.720;2.910;2023-04-24T22:05:59;14.40;;;5.55;;
55728;SDS011;41633;39.720;2.910;2023-04-24T22:10:52;16.77;;;6.45;;
55728;SDS011;41633;39.720;2.910;2023-04-24T22:13:18;16.95;;;6.05;;
55728;SDS011;41633;39.720;2.910;2023-04-24T22:15:46;16.83;;;6.10;;
55728;SDS011;41633;39.720;2.910;2023-04-24T22:18:12;14.18;;;5.78;;
55728;SDS011;41633;39.720;2.910;2023-04-24T22:20:38;14.45;;;6.20;;
55728;SDS011;41633;39.720;2.910;2023-04-24T22:23:04;15.55;;;5.90;;
55728;SDS011;41633;39.720;2.910;2023-04-24T22:27:56;19.02;;;7.20;;
55728;SDS011;41633;39.720;2.910;2023-04-24T22:30:23;15.80;;;6.60;;
55728;SDS011;41633;39.720;2.910;2023-04-24T22:35:15;15.75;;;6.47;;
55728;SDS011;41633;39.720;2.910;2023-04-24T22:37:43;16.25;;;7.07;;
55728;SDS011;41633;39.720;2.910;2023-04-24T22:40:09;14.48;;;6.40;;
55728;SDS011;41633;39.720;2.910;2023-04-24T22:42:35;15.38;;;7.32;;
55728;SDS011;41633;39.720;2.910;2023-04-24T22:47:28;19.80;;;7.80;;
55728;SDS011;41633;39.720;2.910;2023-04-24T22:49:54;15.48;;;7.80;;
55728;SDS011;41633;39.720;2.910;2023-04-24T22:52:22;14.75;;;7.50;;
55728;SDS011;41633;39.720;2.910;2023-04-24T22:57:14;15.93;;;7.60;;
55728;SDS011;41633;39.720;2.910;2023-04-24T22:59:40;13.80;;;6.93;;
55728;SDS011;41633;39.720;2.910;2023-04-24T23:02:06;20.73;;;8.50;;
55728;SDS011;41633;39.720;2.910;2023-04-24T23:06:59;15.00;;;7.40;;
55728;SDS011;41633;39.720;2.910;2023-04-24T23:11:51;16.55;;;7.80;;
55728;SDS011;41633;39.720;2.910;2023-04-24T23:16:43;18.85;;;7.57;;
55728;SDS011;41633;39.720;2.910;2023-04-24T23:19:10;18.52;;;7.72;;
55728;SDS011;41633;39.720;2.910;2023-04-24T23:24:02;21.05;;;6.85;;
55728;SDS011;41633;39.720;2.910;2023-04-24T23:28:54;16.88;;;7.07;;
55728;SDS011;41633;39.720;2.910;2023-04-24T23:33:46;17.27;;;7.80;;
55728;SDS011;41633;39.720;2.910;2023-04-24T23:38:39;15.75;;;6.80;;
55728;SDS011;41633;39.720;2.910;2023-04-24T23:41:05;15.98;;;7.55;;
55728;SDS011;41633;39.720;2.910;2023-04-24T23:45:57;15.82;;;6.78;;
55728;SDS011;41633;39.720;2.910;2023-04-24T23:50:49;16.80;;;6.95;;
55728;SDS011;41633;39.720;2.910;2023-04-24T23:53:16;15.27;;;6.50;;
55728;SDS011;41633;39.720;2.910;2023-04-24T23:55:42;16.40;;;6.30;;
